Time;durP1;ratioP1;P1;durP2;ratioP2;P2;SDS_P1;SDS_P2;PMS_P1;PMS_P2;Temp;Humidity;BMP_temperature;BMP_pressure;BME280_temperature;BME280_humidity;BME280_pressure;Samples;Min_cycle;Max_cycle;Signal;HPM_P1;HPM_P2
2024/01/24 00:04:04;;;;;;;3.40;0.90;;;;;;;17.34;41.47;101493.38;16107351;19;129705;-65
2024/01/24 00:09:26;;;;;;;3.03;0.93;;;;;;;17.31;41.36;101482.75;16106108;19;129968;-65
2024/01/24 00:14:48;;;;;;;2.80;0.70;;;;;;;17.30;41.58;101472.78;16107501;19;131426;-66
2024/01/24 00:20:12;;;;;;;5.78;0.70;;;;;;;17.28;41.63;101480.44;16111223;19;131836;-66
2024/01/24 00:25:34;;;;;;;3.03;0.75;;;;;;;17.24;41.75;101453.22;16109658;19;131561;-65
2024/01/24 00:30:56;;;;;;;2.00;0.60;;;;;;;17.23;41.96;101454.28;16111478;19;129008;-66
2024/01/24 00:36:18;;;;;;;1.38;0.63;;;;;;;17.21;41.81;101453.69;16111806;19;131411;-65
2024/01/24 00:41:41;;;;;;;1.63;0.70;;;;;;;17.19;41.91;101452.19;16108646;19;130776;-65
2024/01/24 00:47:04;;;;;;;4.05;0.68;;;;;;;17.16;41.96;101447.97;16111856;19;129627;-65
2024/01/24 00:52:26;;;;;;;2.00;0.80;;;;;;;17.15;42.09;101465.63;16105022;19;130513;-65
2024/01/24 00:57:47;;;;;;;1.52;0.70;;;;;;;17.14;42.11;101466.69;16107390;19;129490;-65
2024/01/24 01:03:09;;;;;;;2.15;0.70;;;;;;;17.11;42.50;101472.66;16106971;19;130750;-65
2024/01/24 01:08:31;;;;;;;1.60;0.45;;;;;;;17.10;42.47;101468.25;16108814;19;129365;-66
2024/01/24 01:13:53;;;;;;;1.73;0.52;;;;;;;17.09;42.54;101466.53;16109815;19;130187;-65
2024/01/24 01:19:15;;;;;;;2.33;0.68;;;;;;;17.06;42.29;101473.34;16109748;19;134281;-65
2024/01/24 01:24:37;;;;;;;1.17;0.47;;;;;;;17.05;42.83;101465.28;16109101;19;129714;-65
2024/01/24 01:29:59;;;;;;;1.58;0.60;;;;;;;17.04;42.58;101452.53;16112416;19;130044;-65
2024/01/24 01:35:21;;;;;;;1.27;0.47;;;;;;;17.02;42.86;101449.13;16105005;19;131396;-65
2024/01/24 01:40:43;;;;;;;1.50;0.43;;;;;;;17.01;42.85;101480.59;16122638;19;129993;-65
2024/01/24 01:46:10;;;;;;;1.20;0.20;;;;;;;17.00;43.10;101465.09;16123142;19;130344;-67
2024/01/24 01:51:32;;;;;;;1.02;0.40;;;;;;;16.97;42.77;101484.91;16121519;19;129363;-66
2024/01/24 01:56:54;;;;;;;1.63;0.30;;;;;;;16.95;43.35;101470.44;16121167;19;130191;-65
2024/01/24 02:02:16;;;;;;;5.20;0.50;;;;;;;16.93;43.02;101466.00;16123049;19;131023;-65
2024/01/24 02:07:42;;;;;;;0.73;0.40;;;;;;;16.95;43.18;101473.22;16121929;19;129715;-65
2024/01/24 02:13:05;;;;;;;1.25;0.40;;;;;;;16.95;43.10;101468.53;16117987;19;129627;-65
2024/01/24 02:18:28;;;;;;;0.20;0.20;;;;;;;16.95;43.37;101481.50;16119537;19;130896;-65
2024/01/24 02:23:50;;;;;;;0.47;0.20;;;;;;;16.96;43.07;101463.84;16120461;19;129583;-65
2024/01/24 02:29:12;;;;;;;0.77;0.30;;;;;;;16.95;43.32;101460.22;16117113;19;130415;-65
2024/01/24 02:34:34;;;;;;;0.20;0.17;;;;;;;16.93;43.34;101463.22;16121331;19;130055;-65
2024/01/24 02:39:56;;;;;;;1.38;0.20;;;;;;;16.93;43.76;101474.28;16119150;19;131491;-65
2024/01/24 02:45:19;;;;;;;0.25;0.08;;;;;;;16.92;43.43;101505.75;16117035;19;131834;-65
2024/01/24 02:50:41;;;;;;;0.15;0.10;;;;;;;16.92;43.61;101525.09;16120549;19;131073;-66
2024/01/24 02:56:03;;;;;;;0.00;0.00;;;;;;;16.91;43.68;101475.56;16120999;19;130912;-65
2024/01/24 03:01:25;;;;;;;0.22;0.10;;;;;;;16.90;43.50;101457.31;16117039;19;129862;-65
2024/01/24 03:06:47;;;;;;;0.03;0.00;;;;;;;16.89;43.74;101473.03;16116943;19;131202;-64
2024/01/24 03:12:10;;;;;;;0.00;0.00;;;;;;;16.89;43.83;101472.19;16118748;19;129500;-66
2024/01/24 03:17:32;;;;;;;0.00;0.00;;;;;;;16.86;43.78;101481.75;16113683;19;129802;-65
2024/01/24 03:22:54;;;;;;;0.10;0.10;;;;;;;16.84;43.97;101481.16;16113607;19;130341;-65
2024/01/24 03:28:16;;;;;;;0.03;0.00;;;;;;;16.83;44.10;101496.03;16117180;19;130052;-65
2024/01/24 03:33:38;;;;;;;0.10;0.00;;;;;;;16.81;43.62;101514.72;16116444;19;129742;-65
2024/01/24 03:39:00;;;;;;;0.10;0.08;;;;;;;16.82;43.91;101521.97;16118024;19;134312;-65
2024/01/24 03:44:23;;;;;;;0.25;0.00;;;;;;;16.81;43.76;101520.25;16116235;19;130700;-65
2024/01/24 03:49:45;;;;;;;0.38;0.10;;;;;;;16.81;43.75;101539.59;16117462;19;130562;-64
2024/01/24 03:55:07;;;;;;;0.35;0.17;;;;;;;16.80;44.15;101537.91;16114045;19;131437;-64
2024/01/24 04:00:29;;;;;;;2.10;0.45;;;;;;;16.80;44.05;101550.88;16111988;19;129685;-64
2024/01/24 04:18:43;;;;;;;1.45;0.40;;;;;;;16.73;43.73;101537.94;16118827;19;130074;-64
2024/01/24 04:24:06;;;;;;;3.45;0.98;;;;;;;16.75;43.57;101543.22;16108751;19;129824;-68
2024/01/24 04:29:28;;;;;;;1.95;0.60;;;;;;;16.74;43.40;101558.09;16110188;19;130597;-64
2024/01/24 04:34:50;;;;;;;4.22;0.70;;;;;;;16.73;43.55;101557.28;16111937;19;129383;-65
2024/01/24 04:40:16;;;;;;;3.80;0.80;;;;;;;16.74;43.30;101578.31;16106793;19;129690;-65
2024/01/24 04:45:38;;;;;;;4.28;0.98;;;;;;;16.74;43.02;101610.59;16112094;19;129989;-65
2024/01/24 04:51:00;;;;;;;6.97;1.08;;;;;;;16.73;43.32;101589.59;16107937;19;130849;-65
2024/01/24 04:56:22;;;;;;;4.40;1.25;;;;;;;16.73;43.15;101614.47;16107103;19;130572;-65
2024/01/24 05:01:44;;;;;;;7.05;1.20;;;;;;;16.72;42.78;101612.75;16108998;19;130485;-69
2024/01/24 05:07:07;;;;;;;4.43;1.00;;;;;;;16.73;42.63;101617.22;16105356;19;129365;-65
2024/01/24 05:12:30;;;;;;;6.13;1.40;;;;;;;16.72;42.74;101627.41;16115111;19;130484;-65
2024/01/24 05:17:52;;;;;;;6.43;1.10;;;;;;;16.71;42.75;101649.75;16123371;19;129704;-65
2024/01/24 05:23:14;;;;;;;5.45;1.40;;;;;;;16.69;42.47;101604.91;16139293;19;129338;-65
2024/01/24 05:28:36;;;;;;;6.13;1.52;;;;;;;16.70;42.77;101617.66;16136819;19;129654;-66
2024/01/24 05:33:58;;;;;;;6.28;1.50;;;;;;;16.69;42.59;101633.34;16136509;19;130455;-65
2024/01/24 05:39:20;;;;;;;7.68;1.75;;;;;;;16.69;42.16;101671.22;16143875;19;135468;-65
2024/01/24 05:44:42;;;;;;;6.78;2.10;;;;;;;16.67;42.37;101678.84;16141193;19;130836;-65
2024/01/24 05:50:09;;;;;;;9.75;2.00;;;;;;;16.68;42.24;101697.97;16142494;19;130358;-64
2024/01/24 05:55:31;;;;;;;8.00;2.20;;;;;;;16.66;42.10;101722.22;16140375;19;130776;-65
2024/01/24 06:00:53;;;;;;;10.02;2.63;;;;;;;16.65;42.18;101706.69;16139753;19;130770;-67
2024/01/24 06:06:16;;;;;;;5.57;1.75;;;;;;;16.67;42.45;101706.47;16135770;19;130261;-62
2024/01/24 06:11:38;;;;;;;9.10;2.58;;;;;;;16.74;43.00;101716.47;16144313;19;129557;-63
2024/01/24 06:17:00;;;;;;;8.82;2.25;;;;;;;16.87;42.67;101720.28;16137859;19;129390;-65
2024/01/24 06:22:22;;;;;;;14.07;2.80;;;;;;;16.98;42.78;101736.19;16133357;19;129744;-66
2024/01/24 06:27:45;;;;;;;11.07;2.65;;;;;;;17.08;43.00;101741.31;16139969;19;130504;-68
2024/01/24 06:33:07;;;;;;;13.70;2.95;;;;;;;17.19;43.42;101760.00;16139974;19;129473;-67
2024/01/24 06:38:29;;;;;;;10.95;2.25;;;;;;;17.31;43.00;101784.22;16124482;19;129494;-67
2024/01/24 06:43:51;;;;;;;13.32;3.15;;;;;;;17.39;42.70;101793.13;16118172;19;129698;-67
2024/01/24 06:49:13;;;;;;;14.55;3.58;;;;;;;17.49;42.45;101820.31;16118753;19;129214;-66
2024/01/24 06:54:35;;;;;;;13.63;3.33;;;;;;;17.58;42.41;101843.09;16115568;19;129462;-67
2024/01/24 06:59:57;;;;;;;17.15;3.45;;;;;;;17.66;41.80;101844.78;16116591;19;129715;-66
2024/01/24 07:05:19;;;;;;;13.80;2.92;;;;;;;17.72;41.90;101819.03;16120582;19;130721;-67
2024/01/24 07:10:41;;;;;;;16.13;4.30;;;;;;;17.79;41.70;101842.00;16118745;19;131448;-66
2024/01/24 07:16:04;;;;;;;17.98;3.92;;;;;;;17.82;41.13;101852.63;16117176;19;130327;-66
2024/01/24 07:21:26;;;;;;;14.45;3.47;;;;;;;17.87;41.10;101893.50;16115621;19;130608;-65
2024/01/24 07:26:48;;;;;;;23.75;4.28;;;;;;;17.86;40.05;101875.19;16111703;19;130057;-66
2024/01/24 07:32:10;;;;;;;18.10;4.03;;;;;;;17.88;39.83;101913.72;16115907;19;129268;-66
2024/01/24 07:37:32;;;;;;;17.55;4.55;;;;;;;17.93;40.00;101919.47;16115615;19;131593;-66
2024/01/24 07:42:54;;;;;;;11.80;3.58;;;;;;;17.97;39.59;101898.59;16113990;19;130139;-66
2024/01/24 07:48:19;;;;;;;14.45;4.30;;;;;;;17.98;39.78;101920.50;16116243;19;129606;-65
2024/01/24 07:53:43;;;;;;;11.98;3.60;;;;;;;17.99;39.62;101907.50;16115939;19;129596;-66
2024/01/24 07:59:06;;;;;;;16.33;3.85;;;;;;;17.98;39.20;101906.66;16113442;19;129397;-67
2024/01/24 08:04:30;;;;;;;16.20;4.00;;;;;;;17.96;39.54;101913.50;16111937;19;129666;-66
2024/01/24 08:09:52;;;;;;;14.75;3.83;;;;;;;17.93;39.38;101941.59;16116350;19;129417;-65
2024/01/24 08:15:15;;;;;;;11.88;3.20;;;;;;;17.91;38.93;101960.34;16114533;19;130589;-66
2024/01/24 08:20:37;;;;;;;13.13;3.10;;;;;;;17.91;38.93;101991.63;16119436;19;131091;-66
2024/01/24 08:25:59;;;;;;;11.70;3.35;;;;;;;17.89;39.13;101987.38;16117510;19;131504;-66
2024/01/24 08:31:21;;;;;;;13.60;3.67;;;;;;;17.87;38.89;101993.16;16109135;19;129543;-65
2024/01/24 08:36:43;;;;;;;14.70;3.67;;;;;;;17.87;38.65;102022.72;16114000;19;130318;-66
2024/01/24 08:42:06;;;;;;;13.23;3.45;;;;;;;17.85;38.70;102031.25;16112372;19;129479;-67
2024/01/24 08:47:27;;;;;;;16.00;4.03;;;;;;;17.85;38.93;102009.97;16111954;19;129640;-66
2024/01/24 08:52:51;;;;;;;12.57;3.72;;;;;;;17.83;38.74;102009.34;16110760;19;131320;-66
2024/01/24 08:58:13;;;;;;;11.40;3.80;;;;;;;17.84;38.72;102024.03;16113222;19;129265;-66
2024/01/24 09:03:35;;;;;;;14.57;3.72;;;;;;;17.85;38.48;102057.03;16112416;19;129992;-66
2024/01/24 09:08:57;;;;;;;14.20;3.22;;;;;;;17.87;38.65;102054.06;16112916;19;130482;-69
2024/01/24 09:14:19;;;;;;;15.23;3.55;;;;;;;17.89;38.15;102059.38;16110880;19;129577;-66
2024/01/24 09:19:41;;;;;;;15.32;3.28;;;;;;;17.90;38.07;102086.00;16111638;19;131536;-65
2024/01/24 09:25:04;;;;;;;14.50;4.13;;;;;;;17.91;38.36;102099.59;16108639;19;129673;-65
2024/01/24 09:30:30;;;;;;;16.58;3.55;;;;;;;17.95;38.40;102109.19;16107403;19;129241;-65
2024/01/24 09:35:52;;;;;;;14.20;4.00;;;;;;;17.97;38.11;102129.22;16112983;19;130973;-65
2024/01/24 09:41:20;;;;;;;13.50;3.47;;;;;;;17.99;37.82;102118.78;16108645;19;129930;-65
2024/01/24 09:46:42;;;;;;;13.10;3.42;;;;;;;18.04;37.79;102142.22;16106438;19;130005;-66
2024/01/24 09:52:05;;;;;;;18.00;4.15;;;;;;;18.08;37.91;102136.06;16108751;19;130722;-65
2024/01/24 09:57:27;;;;;;;10.82;3.53;;;;;;;18.14;37.88;102143.50;16108199;19;130399;-65
2024/01/24 10:02:50;;;;;;;11.70;3.50;;;;;;;18.17;37.36;102149.69;16120232;19;130952;-65
2024/01/24 10:08:12;;;;;;;14.82;3.38;;;;;;;18.23;37.66;102176.50;16119834;19;130518;-65
2024/01/24 10:13:37;;;;;;;15.65;3.97;;;;;;;18.30;37.25;102185.69;16123035;19;130030;-65
2024/01/24 10:18:59;;;;;;;14.57;3.45;;;;;;;18.37;37.02;102197.59;16118638;19;129635;-65
2024/01/24 10:24:22;;;;;;;11.50;3.50;;;;;;;18.43;37.06;102191.25;16122177;19;130271;-65
2024/01/24 10:29:44;;;;;;;14.77;3.85;;;;;;;18.49;36.75;102200.63;16111527;19;130197;-65
2024/01/24 10:35:08;;;;;;;17.13;4.00;;;;;;;18.57;36.94;102217.03;16113254;19;130449;-65
2024/01/24 10:40:31;;;;;;;13.73;3.70;;;;;;;18.67;36.71;102230.47;16113090;19;130349;-65
2024/01/24 10:45:57;;;;;;;11.30;2.88;;;;;;;18.79;36.25;102218.72;16120080;19;131026;-65
2024/01/24 10:51:20;;;;;;;13.05;3.97;;;;;;;18.94;36.44;102241.53;16119266;19;129902;-65
2024/01/24 10:56:47;;;;;;;13.48;3.92;;;;;;;19.04;36.12;102230.81;16119500;19;129346;-65
2024/01/24 11:02:10;;;;;;;15.65;3.97;;;;;;;19.13;35.53;102244.44;16118369;19;130822;-65
2024/01/24 11:07:40;;;;;;;13.85;3.78;;;;;;;19.17;35.65;102268.75;16115633;19;130600;-65
2024/01/24 11:13:05;;;;;;;9.35;3.50;;;;;;;19.19;35.55;102263.84;16117980;19;129499;-65
2024/01/24 11:18:33;;;;;;;11.70;3.45;;;;;;;19.31;35.21;102266.84;16117823;19;131263;-65
2024/01/24 11:23:55;;;;;;;13.30;3.42;;;;;;;19.41;35.36;102296.06;16117710;19;132777;-65
2024/01/24 11:29:17;;;;;;;13.13;3.33;;;;;;;19.53;35.16;102288.75;16112339;19;129678;-65
2024/01/24 11:34:43;;;;;;;15.02;4.15;;;;;;;19.65;34.74;102300.88;16120374;19;129043;-65
2024/01/24 11:40:07;;;;;;;14.13;3.88;;;;;;;19.83;34.69;102288.19;16118443;19;129993;-65
2024/01/24 11:45:29;;;;;;;11.02;3.78;;;;;;;19.97;34.26;102311.19;16115416;19;129580;-65
2024/01/24 11:50:59;;;;;;;14.30;3.83;;;;;;;20.13;34.11;102323.75;16120558;19;131050;-65
2024/01/24 11:56:21;;;;;;;14.93;4.32;;;;;;;20.14;34.14;102333.78;16114516;19;133288;-65
2024/01/24 12:01:45;;;;;;;12.80;3.80;;;;;;;20.12;33.81;102327.59;16115052;19;129505;-65
2024/01/24 12:07:07;;;;;;;8.95;3.30;;;;;;;20.05;34.05;102338.75;16105798;19;129623;-65
2024/01/24 12:12:29;;;;;;;13.23;3.55;;;;;;;20.05;33.62;102346.25;16108729;19;129254;-66
2024/01/24 12:18:01;;;;;;;10.55;3.20;;;;;;;20.10;33.49;102352.84;16112079;19;130205;-65
2024/01/24 12:23:24;;;;;;;9.60;3.03;;;;;;;20.07;33.75;102353.28;16110253;19;131691;-66
2024/01/24 12:28:46;;;;;;;11.88;3.00;;;;;;;19.96;34.05;102349.22;16109451;19;129531;-65
2024/01/24 12:34:09;;;;;;;10.38;3.30;;;;;;;19.86;34.10;102359.13;16111451;19;130470;-66
2024/01/24 12:39:34;;;;;;;8.98;3.17;;;;;;;19.77;33.96;102366.81;16113975;19;131838;-66
2024/01/24 12:44:56;;;;;;;;;;;;;;;19.65;34.23;102359.19;16112033;19;131687;-66
2024/01/24 12:50:18;;;;;;;11.82;3.38;;;;;;;19.53;34.26;102366.47;16113945;19;131650;-66
2024/01/24 12:55:40;;;;;;;12.40;3.85;;;;;;;19.40;34.11;102370.13;16111681;19;130302;-65
2024/01/24 13:01:03;;;;;;;8.27;3.00;;;;;;;19.32;34.48;102375.91;16108244;19;129625;-66
2024/01/24 13:06:26;;;;;;;10.68;3.50;;;;;;;19.24;34.52;102403.88;16104140;19;129943;-66
2024/01/24 13:11:50;;;;;;;9.18;2.88;;;;;;;19.17;34.37;102414.94;16107350;19;129823;-65
2024/01/24 13:17:12;;;;;;;9.68;2.70;;;;;;;19.10;34.41;102400.22;16105456;19;130393;-64
2024/01/24 13:22:35;;;;;;;9.27;3.00;;;;;;;19.02;34.74;102393.81;16107827;19;131040;-65
2024/01/24 13:27:58;;;;;;;11.15;3.20;;;;;;;18.93;34.61;102384.00;16106392;19;129616;-64
2024/01/24 13:33:20;;;;;;;16.52;3.80;;;;;;;18.84;34.22;102390.81;16112176;19;134703;-65
2024/01/24 13:38:43;;;;;;;14.57;3.50;;;;;;;18.76;34.39;102414.91;16123483;19;129156;-65
2024/01/24 13:44:05;;;;;;;23.88;4.00;;;;;;;18.70;34.71;102410.22;16123027;19;130749;-66
2024/01/24 13:49:27;;;;;;;21.23;3.75;;;;;;;18.69;35.18;102416.84;16121933;19;129411;-67
2024/01/24 13:54:49;;;;;;;19.40;3.30;;;;;;;18.66;35.74;102439.44;16123739;19;129543;-66
2024/01/24 14:00:13;;;;;;;13.07;3.03;;;;;;;18.62;35.60;102424.28;16119710;19;129830;-66
2024/01/24 14:05:37;;;;;;;18.63;3.85;;;;;;;18.54;35.50;102433.63;16120637;19;130704;-67
2024/01/24 14:11:01;;;;;;;13.55;3.15;;;;;;;18.51;35.68;102435.97;16124240;19;134330;-66
2024/01/24 14:16:24;;;;;;;11.13;3.03;;;;;;;18.49;36.02;102438.09;16118917;19;129930;-66
2024/01/24 14:21:46;;;;;;;19.50;3.80;;;;;;;18.41;35.18;102442.75;16118460;19;129659;-65
2024/01/24 14:27:08;;;;;;;18.33;4.32;;;;;;;18.32;35.27;102455.06;16116585;19;131343;-65
2024/01/24 14:32:30;;;;;;;19.23;4.43;;;;;;;18.22;35.23;102472.06;16117355;19;130829;-66
2024/01/24 14:37:52;;;;;;;16.00;3.58;;;;;;;18.12;35.42;102483.50;16120775;19;129718;-66
2024/01/24 14:43:15;;;;;;;17.52;4.00;;;;;;;18.06;35.60;102483.47;16117202;19;129668;-66
2024/01/24 14:48:37;;;;;;;14.25;3.35;;;;;;;17.99;35.24;102500.06;16119336;19;129566;-66
2024/01/24 14:53:59;;;;;;;17.92;3.97;;;;;;;17.90;35.56;102517.91;16104457;19;129745;-67
2024/01/24 14:59:21;;;;;;;30.02;3.72;;;;;;;17.81;35.81;102512.53;16113929;19;135110;-63
2024/01/24 15:04:43;;;;;;;38.45;5.00;;;;;;;17.76;35.59;102523.34;16110300;19;129700;-66
2024/01/24 15:10:07;;;;;;;47.08;5.50;;;;;;;17.72;35.62;102510.97;16116740;19;129630;-66
2024/01/24 15:15:31;;;;;;;27.85;4.60;;;;;;;17.69;35.82;102503.06;16111362;19;130434;-65
2024/01/24 15:20:53;;;;;;;22.52;4.78;;;;;;;17.63;36.19;102523.22;16115411;19;130915;-66
2024/01/24 15:26:30;;;;;;;23.27;4.95;;;;;;;17.52;36.17;102531.00;16116401;19;129689;-66
2024/01/24 15:31:53;;;;;;;20.17;4.20;;;;;;;17.47;35.96;102543.72;16115046;19;132188;-66
2024/01/24 15:37:15;;;;;;;22.48;4.80;;;;;;;17.38;36.16;102552.16;16115306;19;131499;-66
2024/01/24 15:42:40;;;;;;;21.73;4.32;;;;;;;17.31;36.43;102544.84;16112170;19;131395;-66
2024/01/24 15:48:05;;;;;;;20.48;3.75;;;;;;;17.23;36.67;102560.50;16114859;19;130956;-66
2024/01/24 15:53:27;;;;;;;19.15;4.10;;;;;;;17.20;36.89;102563.69;16111009;19;131379;-67
2024/01/24 15:58:49;;;;;;;20.88;4.18;;;;;;;17.15;36.93;102549.56;16110084;19;129753;-67
2024/01/24 16:04:11;;;;;;;19.83;4.85;;;;;;;17.12;36.73;102547.19;16114070;19;129368;-66
2024/01/24 16:09:34;;;;;;;16.25;3.40;;;;;;;17.12;37.25;102572.09;16116727;19;129658;-66
2024/01/24 16:14:56;;;;;;;12.40;3.30;;;;;;;17.13;37.16;102568.25;16116652;19;134486;-66
2024/01/24 16:20:21;;;;;;;18.37;4.00;;;;;;;17.17;37.16;102575.13;16110396;19;131901;-65
2024/01/24 16:25:43;;;;;;;22.17;3.85;;;;;;;17.20;37.19;102591.34;16105078;19;131390;-66
2024/01/24 16:31:04;;;;;;;18.48;3.88;;;;;;;17.28;37.49;102589.50;16107587;19;129822;-68
2024/01/24 16:36:26;;;;;;;18.17;4.20;;;;;;;17.35;37.92;102593.19;16104873;19;130509;-66
2024/01/24 16:41:48;;;;;;;14.15;4.10;;;;;;;17.43;38.47;102592.19;16104838;19;130485;-66
2024/01/24 16:47:11;;;;;;;13.27;3.45;;;;;;;17.52;39.00;102616.78;16106352;19;129297;-68
2024/01/24 16:52:36;;;;;;;14.80;3.33;;;;;;;17.67;39.34;102611.19;16114091;19;129570;-65
2024/01/24 16:57:58;;;;;;;10.50;3.53;;;;;;;17.86;39.48;102622.66;16114758;19;130251;-65
2024/01/24 17:03:19;;;;;;;16.90;3.88;;;;;;;18.01;38.81;102614.25;16103958;19;130150;-66
2024/01/24 17:08:41;;;;;;;15.98;3.45;;;;;;;18.11;38.82;102625.81;16119073;19;131363;-66
2024/01/24 17:14:04;;;;;;;16.75;3.53;;;;;;;18.22;38.97;102629.09;16126463;19;129455;-66
2024/01/24 17:19:26;;;;;;;14.30;3.35;;;;;;;18.33;39.32;102634.09;16123725;19;129646;-67
2024/01/24 17:24:48;;;;;;;9.05;2.38;;;;;;;18.43;38.94;102640.16;16123526;19;130082;-72
2024/01/24 17:30:11;;;;;;;9.82;3.22;;;;;;;18.54;39.10;102637.88;16123219;19;130163;-66
2024/01/24 17:35:33;;;;;;;14.18;3.10;;;;;;;18.69;39.19;102665.47;16127552;19;131696;-67
2024/01/24 17:41:00;;;;;;;12.57;2.90;;;;;;;18.81;39.05;102661.06;16122752;19;129529;-66
2024/01/24 17:46:22;;;;;;;23.65;3.83;;;;;;;18.86;38.86;102669.63;16096737;19;130458;-71
2024/01/24 17:51:44;;;;;;;21.73;3.88;;;;;;;18.86;38.14;102660.44;16125638;19;129837;-66
2024/01/24 17:57:06;;;;;;;17.92;4.25;;;;;;;18.84;38.00;102674.53;16121257;19;131739;-69
2024/01/24 18:02:28;;;;;;;18.02;3.67;;;;;;;18.79;37.91;102659.56;16121596;19;130934;-67
2024/01/24 18:08:09;;;;;;;14.65;3.60;;;;;;;18.82;38.29;102654.44;16124866;19;130850;-73
2024/01/24 18:13:36;;;;;;;22.87;3.57;;;;;;;18.81;38.38;102657.44;16125581;19;130941;-65
2024/01/24 18:18:58;;;;;;;16.08;3.75;;;;;;;18.81;38.38;102640.81;16123327;19;131928;-66
2024/01/24 18:24:21;;;;;;;8.95;2.78;;;;;;;18.79;38.43;102645.69;16123109;19;130540;-68
2024/01/24 18:29:44;;;;;;;13.75;3.17;;;;;;;18.75;38.42;102643.31;16119316;19;131019;-65
2024/01/24 18:35:06;;;;;;;10.13;2.92;;;;;;;18.72;38.49;102645.66;16117331;19;130225;-66
2024/01/24 18:40:28;;;;;;;10.68;2.53;;;;;;;18.66;38.17;102640.91;16111493;19;131048;-67
2024/01/24 18:45:50;;;;;;;9.65;2.90;;;;;;;18.60;38.06;102639.81;16113750;19;131292;-65
2024/01/24 18:51:16;;;;;;;16.25;4.00;;;;;;;18.54;37.96;102648.97;16113549;19;130121;-66
2024/01/24 18:56:38;;;;;;;9.13;2.73;;;;;;;18.48;38.42;102670.03;16112516;19;132053;-67
2024/01/24 19:02:00;;;;;;;16.30;3.53;;;;;;;18.42;38.38;102671.72;16115441;19;130454;-68
2024/01/24 19:07:22;;;;;;;23.30;4.43;;;;;;;18.37;38.24;102676.94;16112728;19;131496;-66
2024/01/24 19:12:45;;;;;;;13.05;3.67;;;;;;;18.31;38.46;102681.38;16116588;19;130197;-65
2024/01/24 19:18:07;;;;;;;19.05;3.85;;;;;;;18.25;38.75;102667.47;16113611;19;129371;-65
2024/01/24 19:23:37;;;;;;;13.68;3.03;;;;;;;18.19;38.98;102669.16;16117568;19;131846;-64
2024/01/24 19:28:59;;;;;;;12.73;3.15;;;;;;;18.14;38.89;102675.28;16110835;19;129557;-66
2024/01/24 19:34:21;;;;;;;11.32;3.25;;;;;;;18.09;38.93;102682.50;16110396;19;134991;-65
2024/01/24 19:39:43;;;;;;;11.63;2.80;;;;;;;18.05;39.35;102681.16;16110678;19;132141;-65
2024/01/24 19:45:06;;;;;;;11.77;3.25;;;;;;;18.00;39.23;102681.78;16111475;19;131396;-66
2024/01/24 19:50:28;;;;;;;9.80;3.28;;;;;;;17.96;39.69;102666.63;16116795;19;130453;-66
2024/01/24 19:55:50;;;;;;;12.85;3.28;;;;;;;17.91;39.97;102680.19;16111165;19;130509;-66
2024/01/24 20:01:13;;;;;;;8.63;3.00;;;;;;;17.88;39.74;102697.19;16113391;19;131330;-67
2024/01/24 20:06:37;;;;;;;13.30;3.63;;;;;;;17.84;40.66;102697.63;16114341;19;131459;-67
2024/01/24 20:11:59;;;;;;;13.15;2.65;;;;;;;17.83;41.18;102695.03;16115420;19;130669;-67
2024/01/24 20:17:22;;;;;;;16.40;3.25;;;;;;;17.79;41.48;102697.34;16112156;19;129579;-66
2024/01/24 20:22:44;;;;;;;12.90;3.35;;;;;;;17.76;41.82;102697.72;16109259;19;130763;-66
2024/01/24 20:28:06;;;;;;;10.55;2.72;;;;;;;17.75;41.88;102698.78;16110134;19;129816;-67
2024/01/24 20:33:29;;;;;;;12.30;3.00;;;;;;;17.71;41.99;102708.56;16100453;19;131914;-66
2024/01/24 20:38:51;;;;;;;6.72;2.28;;;;;;;17.69;42.13;102716.19;16104061;19;131784;-66
2024/01/24 20:44:14;;;;;;;8.93;2.92;;;;;;;17.66;42.26;102708.28;16102198;19;129636;-66
2024/01/24 20:49:37;;;;;;;12.93;3.17;;;;;;;17.63;42.36;102706.75;16107656;19;130265;-67
2024/01/24 20:55:00;;;;;;;7.80;3.03;;;;;;;17.61;42.57;102706.09;16103407;19;131350;-67
2024/01/24 21:00:22;;;;;;;12.23;3.17;;;;;;;17.58;43.20;102709.25;16109569;19;130305;-66
2024/01/24 21:05:44;;;;;;;12.80;2.40;;;;;;;17.57;43.45;102712.22;16109689;19;130452;-66
2024/01/24 21:11:09;;;;;;;11.68;2.60;;;;;;;17.54;43.26;102713.41;16109200;19;130084;-66
2024/01/24 21:16:31;;;;;;;13.93;3.17;;;;;;;17.52;43.22;102723.84;16104066;19;129582;-66
2024/01/24 21:21:53;;;;;;;7.50;2.28;;;;;;;17.50;43.40;102724.03;16106675;19;129814;-66
2024/01/24 21:27:15;;;;;;;10.90;2.72;;;;;;;17.48;43.31;102731.66;16106121;19;130495;-66
2024/01/24 21:32:37;;;;;;;12.93;3.05;;;;;;;17.44;43.93;102727.59;16085184;19;130415;-65
2024/01/24 21:37:59;;;;;;;9.98;3.00;;;;;;;17.42;43.98;102737.09;16095626;19;130033;-72
2024/01/24 21:43:21;;;;;;;13.05;3.10;;;;;;;17.41;43.72;102747.34;16103284;19;134964;-74
2024/01/24 21:48:43;;;;;;;12.32;3.35;;;;;;;17.39;44.03;102752.19;16113441;19;131395;-72
2024/01/24 21:54:06;;;;;;;19.08;3.40;;;;;;;17.37;44.18;102768.13;16127369;19;130091;-75
2024/01/24 21:59:28;;;;;;;13.80;3.20;;;;;;;17.35;44.32;102759.19;16126659;19;129679;-75
2024/01/24 22:04:50;;;;;;;15.18;3.22;;;;;;;17.34;44.43;102751.94;16126659;19;130162;-77
2024/01/24 22:10:12;;;;;;;18.92;3.70;;;;;;;17.32;44.18;102756.78;16132646;19;129391;-73
2024/01/24 22:15:34;;;;;;;17.58;4.00;;;;;;;17.29;44.10;102762.72;16125634;19;130674;-73
2024/01/24 22:20:56;;;;;;;18.63;3.25;;;;;;;17.27;44.31;102762.03;16122075;19;133661;-74
2024/01/24 22:26:19;;;;;;;19.92;3.30;;;;;;;17.24;44.03;102758.59;16127432;19;131132;-74
2024/01/24 22:31:41;;;;;;;14.25;2.75;;;;;;;17.20;44.21;102765.59;16127189;19;131190;-74
2024/01/24 22:37:03;;;;;;;17.42;3.58;;;;;;;17.18;44.02;102762.16;16117060;19;131196;-73
2024/01/24 22:42:25;;;;;;;11.95;3.10;;;;;;;17.16;44.06;102755.09;16119551;19;131019;-74
2024/01/24 22:47:47;;;;;;;13.30;3.15;;;;;;;17.12;44.13;102765.66;16123137;19;130233;-74
2024/01/24 22:53:09;;;;;;;13.93;2.58;;;;;;;17.10;43.99;102767.78;16122179;19;131948;-74
2024/01/24 22:58:31;;;;;;;11.98;2.50;;;;;;;17.07;44.09;102780.06;16121998;19;129455;-74
2024/01/24 23:03:53;;;;;;;9.02;2.33;;;;;;;17.04;44.21;102774.94;16122251;19;129478;-74
2024/01/24 23:09:15;;;;;;;13.85;2.92;;;;;;;17.01;44.15;102771.69;16122654;19;130059;-74
2024/01/24 23:14:40;;;;;;;13.95;3.00;;;;;;;16.99;44.12;102790.34;16122151;19;129808;-73
2024/01/24 23:20:04;;;;;;;14.35;2.70;;;;;;;16.97;43.82;102798.00;16114744;19;131030;-74
2024/01/24 23:25:26;;;;;;;11.98;2.70;;;;;;;16.96;44.19;102804.59;16123722;19;130268;-73
2024/01/24 23:30:49;;;;;;;10.00;2.67;;;;;;;16.92;44.17;102810.47;16107585;19;129905;-74
2024/01/24 23:36:11;;;;;;;11.75;2.50;;;;;;;16.90;44.15;102803.44;16121251;19;131316;-74
2024/01/24 23:41:33;;;;;;;14.30;3.10;;;;;;;16.87;43.98;102807.41;16116713;19;130828;-73
2024/01/24 23:46:55;;;;;;;9.98;2.60;;;;;;;16.85;44.14;102809.53;16117075;19;130729;-73
2024/01/24 23:52:16;;;;;;;8.90;1.95;;;;;;;16.83;43.88;102810.75;16112255;19;131884;-74
2024/01/24 23:57:38;;;;;;;8.65;2.47;;;;;;;16.82;43.98;102806.25;16121319;19;131196;-73
